Time;durP1;ratioP1;P1;durP2;ratioP2;P2;SDS_P1;SDS_P2;PMS_P1;PMS_P2;Temp;Humidity;BMP_temperature;BMP_pressure;BME280_temperature;BME280_humidity;BME280_pressure;Samples;Min_cycle;Max_cycle;Signal;HPM_P1;HPM_P2
2021/12/04 00:00:05;;;;;;;10.88;2.58;;;;;;;;;;5003593;28;20521;-68
2021/12/04 00:02:40;;;;;;;;;;;;;;;;;;5005754;28;20057;-68
2021/12/04 00:05:10;;;;;;;14.77;3.13;;;;;;;;;;5005848;28;19928;-67
2021/12/04 00:07:40;;;;;;;13.00;3.83;;;;;;;;;;5046365;28;20056;-68
2021/12/04 00:10:17;;;;;;;18.52;3.70;;;;;;;;;;5062504;28;20417;-68
2021/12/04 00:12:48;;;;;;;13.73;3.33;;;;;;;;;;5045139;28;20052;-68
2021/12/04 00:15:18;;;;;;;12.93;3.22;;;;;;;;;;5061409;28;20053;-68
2021/12/04 00:17:48;;;;;;;19.23;3.10;;;;;;;;;;5041060;28;20068;-69
2021/12/04 00:20:19;;;;;;;13.43;3.20;;;;;;;;;;5053924;28;20057;-67
2021/12/04 00:22:49;;;;;;;14.15;3.13;;;;;;;;;;5062373;28;20049;-67
2021/12/04 00:25:20;;;;;;;14.80;3.22;;;;;;;;;;5060230;28;20063;-67
2021/12/04 00:27:50;;;;;;;16.15;3.13;;;;;;;;;;5030473;28;20057;-67
2021/12/04 00:30:21;;;;;;;15.43;3.35;;;;;;;;;;5022389;28;20057;-67
2021/12/04 00:33:01;;;;;;;12.70;3.53;;;;;;;;;;5021471;28;20052;-67
2021/12/04 00:35:38;;;;;;;19.42;3.53;;;;;;;;;;5023214;28;20061;-67
2021/12/04 00:51:45;;;;;;;11.07;3.80;;;;;;;;;;5016688;28;20528;-67
2021/12/04 00:54:18;;;;;;;8.60;3.22;;;;;;;;;;4999480;28;20046;-67
2021/12/04 00:56:49;;;;;;;7.97;2.83;;;;;;;;;;5023329;28;20053;-67
2021/12/04 00:59:20;;;;;;;10.40;3.38;;;;;;;;;;4991050;28;20049;-66
2021/12/04 01:01:51;;;;;;;16.35;3.13;;;;;;;;;;5023015;28;20600;-69
2021/12/04 01:04:23;;;;;;;10.68;3.10;;;;;;;;;;4984883;28;20557;-67
2021/12/04 01:06:54;;;;;;;14.05;3.28;;;;;;;;;;4966520;28;20503;-66
2021/12/04 01:09:26;;;;;;;10.57;3.38;;;;;;;;;;4992860;28;20062;-67
2021/12/04 01:11:56;;;;;;;;;;;;;;;;;;4962097;28;20051;-67
2021/12/04 01:14:27;;;;;;;14.27;3.10;;;;;;;;;;4971846;28;19922;-67
2021/12/04 01:16:59;;;;;;;15.00;3.55;;;;;;;;;;4972263;28;20533;-66
2021/12/04 01:19:29;;;;;;;12.40;3.05;;;;;;;;;;4972074;28;20046;-67
2021/12/04 01:22:01;;;;;;;11.43;3.22;;;;;;;;;;4972159;28;20055;-66
2021/12/04 01:24:32;;;;;;;9.52;3.10;;;;;;;;;;4955738;28;20126;-67
2021/12/04 01:27:03;;;;;;;20.75;3.92;;;;;;;;;;4972163;28;20074;-67
2021/12/04 01:29:33;;;;;;;12.80;4.15;;;;;;;;;;4971873;28;20058;-67
2021/12/04 01:32:07;;;;;;;21.38;4.72;;;;;;;;;;4991063;28;20089;-67
2021/12/04 01:34:38;;;;;;;17.25;4.53;;;;;;;;;;5002186;28;20054;-67
2021/12/04 01:37:08;;;;;;;13.88;4.70;;;;;;;;;;5010775;28;20510;-66
2021/12/04 01:39:38;;;;;;;13.75;4.70;;;;;;;;;;5010736;28;20054;-68
2021/12/04 01:42:09;;;;;;;15.10;4.50;;;;;;;;;;5022582;28;20053;-68
2021/12/04 01:44:39;;;;;;;19.73;4.82;;;;;;;;;;4981482;28;20069;-67
2021/12/04 01:47:22;;;;;;;24.27;4.80;;;;;;;;;;5030611;28;20544;-67
2021/12/04 01:49:54;;;;;;;20.10;4.70;;;;;;;;;;5009533;28;20053;-67
2021/12/04 01:52:24;;;;;;;;;;;;;;;;;;5014361;28;20042;-67
2021/12/04 01:54:58;;;;;;;16.52;4.93;;;;;;;;;;5030493;28;19921;-68
2021/12/04 01:57:28;;;;;;;18.83;4.78;;;;;;;;;;5014510;28;20061;-66
2021/12/04 01:59:59;;;;;;;21.10;4.72;;;;;;;;;;4971557;28;20090;-67
2021/12/04 02:02:29;;;;;;;22.05;4.63;;;;;;;;;;4971995;28;20051;-66
2021/12/04 02:05:01;;;;;;;15.07;4.45;;;;;;;;;;4967280;28;20047;-68
2021/12/04 02:07:31;;;;;;;13.02;4.20;;;;;;;;;;4968046;28;20062;-68
2021/12/04 02:10:04;;;;;;;11.95;3.60;;;;;;;;;;4983335;28;20042;-68
2021/12/04 02:12:35;;;;;;;9.07;3.08;;;;;;;;;;4990605;28;20081;-67
2021/12/04 02:15:07;;;;;;;10.13;3.53;;;;;;;;;;4951668;29;20066;-67
2021/12/04 02:17:37;;;;;;;7.45;3.63;;;;;;;;;;4951916;29;20066;-67
2021/12/04 02:20:16;;;;;;;10.45;4.25;;;;;;;;;;4951785;29;21082;-66
2021/12/04 02:22:48;;;;;;;12.75;3.90;;;;;;;;;;4919502;29;20060;-68
2021/12/04 02:25:19;;;;;;;8.02;3.58;;;;;;;;;;4908671;29;20761;-67
2021/12/04 02:27:50;;;;;;;7.22;3.95;;;;;;;;;;4898485;29;20464;-67
2021/12/04 02:30:24;;;;;;;6.45;3.70;;;;;;;;;;4886066;29;20402;-67
2021/12/04 02:32:56;;;;;;;6.72;3.85;;;;;;;;;;4913705;29;20048;-67
2021/12/04 02:35:29;;;;;;;9.48;4.28;;;;;;;;;;4881964;29;20063;-67
2021/12/04 02:39:45;;;;;;;7.40;4.00;;;;;;;;;;5065097;27;2462943;-67
2021/12/04 02:42:21;;;;;;;7.95;3.75;;;;;;;;;;5097913;28;20490;-66
2021/12/04 02:44:51;;;;;;;10.88;3.90;;;;;;;;;;5088633;28;20509;-66
2021/12/04 02:47:22;;;;;;;10.27;4.38;;;;;;;;;;5097680;28;20035;-67
2021/12/04 02:49:54;;;;;;;9.30;4.72;;;;;;;;;;5085742;28;20059;-66
2021/12/04 02:52:25;;;;;;;7.53;4.53;;;;;;;;;;5109867;28;20390;-66
2021/12/04 02:54:55;;;;;;;9.52;4.18;;;;;;;;;;5108645;28;20047;-66
2021/12/04 02:57:27;;;;;;;8.40;3.20;;;;;;;;;;5090683;28;20052;-65
2021/12/04 02:59:58;;;;;;;8.45;3.90;;;;;;;;;;5109623;28;20055;-66
2021/12/04 03:02:28;;;;;;;11.82;4.45;;;;;;;;;;5066496;28;20049;-64
2021/12/04 03:05:02;;;;;;;11.50;4.15;;;;;;;;;;5017363;28;20519;-64
2021/12/04 03:07:33;;;;;;;11.00;4.35;;;;;;;;;;5066580;28;20519;-64
2021/12/04 03:10:06;;;;;;;8.52;4.57;;;;;;;;;;5050687;28;20053;-65
2021/12/04 03:12:38;;;;;;;8.43;4.30;;;;;;;;;;5060473;28;20037;-63
2021/12/04 03:15:09;;;;;;;12.25;4.32;;;;;;;;;;5030948;28;20057;-64
2021/12/04 03:17:40;;;;;;;9.90;4.20;;;;;;;;;;5026071;28;20053;-64
2021/12/04 03:20:11;;;;;;;10.07;4.28;;;;;;;;;;4938755;28;20060;-64
2021/12/04 03:22:44;;;;;;;7.78;4.13;;;;;;;;;;4987122;28;20054;-64
2021/12/04 03:25:18;;;;;;;7.95;4.30;;;;;;;;;;4939157;28;20050;-64
2021/12/04 03:27:50;;;;;;;14.00;4.43;;;;;;;;;;4935371;28;20058;-63
2021/12/04 03:41:22;;;;;;;10.25;4.60;;;;;;;;;;4947962;28;20063;-63
2021/12/04 03:43:53;;;;;;;10.23;4.32;;;;;;;;;;4948250;28;20103;-63
2021/12/04 03:46:24;;;;;;;14.32;6.65;;;;;;;;;;4932155;29;20411;-64
2021/12/04 03:48:55;;;;;;;12.43;5.15;;;;;;;;;;4946550;28;20458;-64
2021/12/04 03:51:25;;;;;;;16.83;7.03;;;;;;;;;;4934926;29;20079;-63
2021/12/04 03:53:56;;;;;;;17.30;6.55;;;;;;;;;;4935261;29;20043;-63
2021/12/04 03:56:28;;;;;;;18.42;7.10;;;;;;;;;;4957936;28;20422;-63
2021/12/04 03:58:59;;;;;;;16.25;6.93;;;;;;;;;;5012048;28;20061;-63
2021/12/04 04:01:29;;;;;;;17.25;5.35;;;;;;;;;;5012644;28;20042;-63
2021/12/04 04:04:01;;;;;;;21.17;6.57;;;;;;;;;;4992633;28;20058;-63
2021/12/04 04:06:31;;;;;;;18.90;5.93;;;;;;;;;;4992845;28;20058;-63
2021/12/04 04:09:03;;;;;;;15.05;5.70;;;;;;;;;;4992924;28;20058;-63
2021/12/04 04:11:36;;;;;;;;;;;;;;;;;;5052226;28;20567;-64
2021/12/04 04:14:07;;;;;;;16.42;6.35;;;;;;;;;;5052190;28;19933;-63
2021/12/04 04:16:39;;;;;;;13.25;7.40;;;;;;;;;;5052088;28;20425;-63
2021/12/04 04:19:11;;;;;;;15.32;5.75;;;;;;;;;;5066865;28;20400;-63
2021/12/04 04:21:42;;;;;;;17.13;6.20;;;;;;;;;;5071970;28;20049;-65
2021/12/04 04:24:15;;;;;;;17.08;6.28;;;;;;;;;;5071905;28;20490;-64
2021/12/04 04:26:46;;;;;;;10.82;5.43;;;;;;;;;;5038364;28;20407;-64
2021/12/04 04:29:16;;;;;;;13.60;5.88;;;;;;;;;;5038354;28;20055;-64
2021/12/04 04:31:50;;;;;;;12.05;5.30;;;;;;;;;;5014874;28;20046;-64
2021/12/04 04:34:31;;;;;;;14.70;5.70;;;;;;;;;;5015885;28;20057;-64
2021/12/04 04:59:31;;;;;;;18.92;6.47;;;;;;;;;;5011537;28;20061;-66
2021/12/04 05:13:16;;;;;;;13.55;5.20;;;;;;;;;;5011238;28;20069;-66
2021/12/04 05:21:04;;;;;;;14.93;5.50;;;;;;;;;;4978526;28;20054;-65
2021/12/04 05:23:48;;;;;;;17.02;5.95;;;;;;;;;;4971903;28;20057;-65
2021/12/04 05:26:29;;;;;;;20.67;5.72;;;;;;;;;;4956481;28;20046;-66
2021/12/04 05:29:01;;;;;;;13.70;6.38;;;;;;;;;;4971853;28;20050;-65
2021/12/04 05:31:31;;;;;;;12.68;5.57;;;;;;;;;;4940058;28;20047;-65
2021/12/04 05:34:02;;;;;;;18.83;5.93;;;;;;;;;;4981651;28;20520;-66
2021/12/04 05:36:32;;;;;;;14.63;5.90;;;;;;;;;;4991457;28;20077;-65
2021/12/04 05:39:05;;;;;;;13.48;5.53;;;;;;;;;;4975369;28;20050;-66
2021/12/04 05:41:36;;;;;;;12.30;5.85;;;;;;;;;;4970326;28;20054;-67
2021/12/04 05:44:09;;;;;;;12.38;5.20;;;;;;;;;;4971446;28;20047;-65
2021/12/04 05:46:47;;;;;;;12.38;6.00;;;;;;;;;;4972369;28;20058;-66
2021/12/04 05:55:17;;;;;;;19.15;5.80;;;;;;;;;;4998540;28;20062;-65
2021/12/04 05:57:48;;;;;;;;;;;;;;;;;;5011002;28;20046;-65
2021/12/04 06:00:25;;;;;;;14.43;5.35;;;;;;;;;;4994097;28;19957;-66
2021/12/04 06:03:00;;;;;;;12.10;5.50;;;;;;;;;;5010447;28;20053;-66
2021/12/04 06:05:30;;;;;;;16.83;6.30;;;;;;;;;;4994819;28;20057;-65
2021/12/04 06:08:01;;;;;;;18.88;5.55;;;;;;;;;;4970863;28;20046;-65
2021/12/04 06:10:32;;;;;;;14.82;5.55;;;;;;;;;;4939200;28;20059;-65
2021/12/04 06:13:02;;;;;;;14.13;6.05;;;;;;;;;;4990014;28;20046;-66
2021/12/04 06:15:33;;;;;;;11.98;5.63;;;;;;;;;;4990752;28;20062;-65
2021/12/04 06:18:04;;;;;;;14.60;6.65;;;;;;;;;;4942027;28;20062;-65
2021/12/04 06:23:24;;;;;;;12.05;5.95;;;;;;;;;;4990351;28;20077;-65
2021/12/04 06:25:54;;;;;;;16.17;6.18;;;;;;;;;;4986840;28;20058;-65
2021/12/04 06:28:25;;;;;;;16.00;6.40;;;;;;;;;;4967455;28;20062;-65
2021/12/04 06:30:59;;;;;;;11.20;6.43;;;;;;;;;;4990489;28;20062;-66
2021/12/04 06:33:29;;;;;;;11.10;5.45;;;;;;;;;;4990447;28;20058;-65
2021/12/04 06:36:00;;;;;;;13.43;5.68;;;;;;;;;;4990237;28;20058;-65
2021/12/04 06:38:31;;;;;;;11.40;5.97;;;;;;;;;;4990038;28;20063;-66
2021/12/04 06:41:02;;;;;;;12.60;5.47;;;;;;;;;;4951979;28;20069;-65
2021/12/04 06:43:33;;;;;;;15.60;5.72;;;;;;;;;;4992975;28;20045;-65
2021/12/04 06:46:05;;;;;;;11.00;6.15;;;;;;;;;;5009982;28;20058;-65
2021/12/04 06:48:40;;;;;;;12.00;5.75;;;;;;;;;;5009683;28;20544;-65
2021/12/04 06:51:26;;;;;;;11.18;5.45;;;;;;;;;;4996128;28;20062;-66
2021/12/04 06:56:39;;;;;;;12.32;6.13;;;;;;;;;;4990179;28;20158;-64
2021/12/04 06:59:13;;;;;;;12.98;6.10;;;;;;;;;;4958158;28;20054;-66
2021/12/04 07:01:44;;;;;;;15.68;5.72;;;;;;;;;;4989932;28;20063;-65
2021/12/04 07:04:17;;;;;;;10.02;5.38;;;;;;;;;;5005633;28;20058;-66
2021/12/04 07:06:48;;;;;;;;;;;;;;;;;;4977508;28;20050;-65
2021/12/04 07:09:19;;;;;;;;;;;;;;;;;;5029874;28;19921;-65
2021/12/04 07:11:49;;;;;;;14.38;5.85;;;;;;;;;;5029396;28;19928;-65
2021/12/04 07:14:20;;;;;;;13.10;5.72;;;;;;;;;;5060200;28;20495;-65
2021/12/04 07:16:50;;;;;;;11.93;6.35;;;;;;;;;;5069092;28;20407;-66
2021/12/04 07:19:21;;;;;;;11.43;6.22;;;;;;;;;;5069196;28;20048;-65
2021/12/04 07:21:52;;;;;;;15.68;7.03;;;;;;;;;;5053292;28;20399;-65
2021/12/04 07:24:23;;;;;;;9.82;5.82;;;;;;;;;;5016691;28;20060;-65
2021/12/04 07:26:54;;;;;;;13.50;6.10;;;;;;;;;;5052991;28;20064;-65
2021/12/04 07:29:24;;;;;;;14.90;6.57;;;;;;;;;;5053164;28;20190;-66
2021/12/04 07:31:55;;;;;;;12.82;6.28;;;;;;;;;;5052740;28;20501;-65
2021/12/04 07:34:25;;;;;;;12.18;5.75;;;;;;;;;;5036051;28;20056;-65
2021/12/04 07:36:55;;;;;;;11.63;6.15;;;;;;;;;;5052386;28;20655;-65
2021/12/04 07:39:26;;;;;;;15.93;6.60;;;;;;;;;;5052780;28;20072;-65
2021/12/04 07:41:57;;;;;;;11.05;5.78;;;;;;;;;;5032014;28;20053;-65
2021/12/04 07:44:27;;;;;;;14.52;6.55;;;;;;;;;;5032822;28;20065;-65
2021/12/04 07:46:57;;;;;;;13.63;6.20;;;;;;;;;;5012585;28;20150;-65
2021/12/04 07:49:28;;;;;;;13.90;6.32;;;;;;;;;;5013009;28;20058;-65
2021/12/04 07:51:59;;;;;;;10.15;5.68;;;;;;;;;;4992996;28;20051;-63
2021/12/04 07:54:29;;;;;;;20.45;6.18;;;;;;;;;;4993144;28;20059;-65
2021/12/04 07:57:00;;;;;;;18.60;7.63;;;;;;;;;;4993265;28;20422;-65
2021/12/04 07:59:31;;;;;;;13.07;6.20;;;;;;;;;;4954229;28;20047;-65
2021/12/04 08:02:02;;;;;;;12.15;6.15;;;;;;;;;;4934919;29;20058;-65
2021/12/04 08:04:32;;;;;;;11.25;5.97;;;;;;;;;;4935169;29;20051;-66
2021/12/04 08:07:03;;;;;;;14.35;6.05;;;;;;;;;;4934998;29;20059;-65
2021/12/04 08:09:33;;;;;;;14.75;5.82;;;;;;;;;;4934883;29;20056;-65
2021/12/04 08:12:04;;;;;;;16.63;6.50;;;;;;;;;;4935001;29;20052;-65
2021/12/04 08:14:34;;;;;;;14.15;6.30;;;;;;;;;;4925376;29;20064;-65
2021/12/04 08:17:05;;;;;;;15.10;6.20;;;;;;;;;;4884500;29;20063;-65
2021/12/04 08:19:35;;;;;;;13.13;5.88;;;;;;;;;;4924975;29;20067;-65
2021/12/04 08:22:05;;;;;;;12.13;6.00;;;;;;;;;;4934935;29;20401;-65
2021/12/04 08:24:36;;;;;;;11.85;5.68;;;;;;;;;;4912710;29;20059;-65
2021/12/04 08:27:08;;;;;;;14.60;6.70;;;;;;;;;;4934592;29;20424;-65
2021/12/04 08:29:38;;;;;;;14.85;6.03;;;;;;;;;;4954711;28;20058;-65
2021/12/04 08:32:10;;;;;;;12.60;6.05;;;;;;;;;;4956931;28;20058;-66
2021/12/04 08:34:40;;;;;;;13.40;6.18;;;;;;;;;;4973049;28;20046;-65
2021/12/04 08:37:10;;;;;;;13.55;6.05;;;;;;;;;;4992841;28;20417;-66
2021/12/04 08:39:41;;;;;;;14.15;5.90;;;;;;;;;;5022144;28;20061;-66
2021/12/04 08:42:11;;;;;;;10.88;6.30;;;;;;;;;;5031996;28;20057;-65
2021/12/04 08:44:43;;;;;;;14.43;6.07;;;;;;;;;;4998976;28;20501;-66
2021/12/04 08:47:14;;;;;;;13.70;6.15;;;;;;;;;;5031604;28;20471;-65
2021/12/04 08:49:45;;;;;;;12.25;6.50;;;;;;;;;;4998629;28;20045;-66
2021/12/04 08:52:18;;;;;;;12.38;6.00;;;;;;;;;;5031533;28;20050;-66
2021/12/04 08:54:49;;;;;;;11.38;6.28;;;;;;;;;;5031455;28;20500;-65
2021/12/04 08:57:19;;;;;;;17.90;6.57;;;;;;;;;;5031490;28;20060;-65
2021/12/04 08:59:50;;;;;;;14.80;7.10;;;;;;;;;;5031400;28;20420;-65
2021/12/04 09:02:20;;;;;;;18.30;9.00;;;;;;;;;;5031264;28;20452;-66
2021/12/04 09:04:54;;;;;;;9.77;5.32;;;;;;;;;;5053187;28;20079;-65
2021/12/04 09:07:29;;;;;;;12.18;6.28;;;;;;;;;;5021467;28;20053;-66
2021/12/04 09:09:59;;;;;;;9.27;5.53;;;;;;;;;;5071420;28;20048;-65
2021/12/04 09:12:30;;;;;;;10.25;5.32;;;;;;;;;;5071280;28;20541;-66
2021/12/04 09:15:03;;;;;;;10.27;5.43;;;;;;;;;;5071044;28;20052;-65
2021/12/04 09:17:34;;;;;;;8.95;5.57;;;;;;;;;;5071140;28;20053;-66
2021/12/04 09:20:05;;;;;;;10.25;5.13;;;;;;;;;;5070801;28;20057;-65
2021/12/04 09:22:37;;;;;;;10.73;5.38;;;;;;;;;;5014763;28;20046;-65
2021/12/04 09:25:13;;;;;;;8.30;4.90;;;;;;;;;;5010838;28;20049;-65
2021/12/04 09:36:25;;;;;;;8.52;4.40;;;;;;;;;;4991212;28;20050;-65
2021/12/04 10:01:52;;;;;;;6.97;2.80;;;;;;;;;;4954863;28;20062;-64
2021/12/04 10:13:44;;;;;;;5.10;2.45;;;;;;;;;;4985052;28;20061;-64
2021/12/04 10:33:44;;;;;;;4.78;2.20;;;;;;;;;;5029878;28;20377;-66
2021/12/04 10:36:30;;;;;;;3.88;2.20;;;;;;;;;;5033294;28;20061;-66
2021/12/04 10:39:01;;;;;;;6.07;3.92;;;;;;;;;;4990265;28;20445;-65
2021/12/04 10:41:40;;;;;;;10.75;2.85;;;;;;;;;;4974035;28;20061;-67
2021/12/04 10:44:22;;;;;;;4.18;2.72;;;;;;;;;;4990224;28;20065;-66
2021/12/04 10:47:05;;;;;;;9.68;2.50;;;;;;;;;;4990461;28;20046;-64
2021/12/04 10:49:50;;;;;;;6.35;2.50;;;;;;;;;;4990261;28;20055;-67
2021/12/04 11:01:13;;;;;;;7.50;2.40;;;;;;;;;;4922740;28;20423;-65
2021/12/04 11:27:06;;;;;;;5.20;1.98;;;;;;;;;;4916709;29;20060;-64
2021/12/04 11:38:05;;;;;;;5.70;2.47;;;;;;;;;;4935594;29;20447;-65
2021/12/04 11:40:53;;;;;;;3.97;2.38;;;;;;;;;;4897897;29;20464;-64
2021/12/04 11:43:31;;;;;;;4.53;1.85;;;;;;;;;;4890854;29;20048;-65
2021/12/04 11:46:23;;;;;;;3.45;1.98;;;;;;;;;;4935046;29;20055;-64
2021/12/04 11:48:59;;;;;;;9.63;5.82;;;;;;;;;;4935506;29;20062;-64
2021/12/04 11:51:29;;;;;;;5.30;2.97;;;;;;;;;;4935164;29;20067;-64
2021/12/04 11:54:10;;;;;;;6.03;1.85;;;;;;;;;;4935246;29;20087;-64
2021/12/04 11:56:42;;;;;;;4.55;1.45;;;;;;;;;;4936909;29;20064;-65
2021/12/04 11:59:12;;;;;;;4.90;1.73;;;;;;;;;;4954622;29;20066;-67
2021/12/04 12:01:42;;;;;;;5.72;1.92;;;;;;;;;;4927428;29;20063;-66
2021/12/04 12:04:13;;;;;;;3.50;2.05;;;;;;;;;;4939054;29;20047;-68
2021/12/04 12:06:46;;;;;;;3.80;1.52;;;;;;;;;;4922565;29;20051;-65
2021/12/04 12:09:26;;;;;;;2.72;1.38;;;;;;;;;;4950979;29;20051;-65
2021/12/04 12:12:01;;;;;;;4.10;1.50;;;;;;;;;;4891511;28;20067;-66
2021/12/04 12:14:43;;;;;;;5.20;1.73;;;;;;;;;;4954065;29;20078;-65
2021/12/04 12:17:16;;;;;;;4.93;1.50;;;;;;;;;;4947909;28;20506;-65
2021/12/04 12:19:52;;;;;;;3.22;1.60;;;;;;;;;;4977040;28;20560;-65
2021/12/04 12:22:40;;;;;;;3.08;1.70;;;;;;;;;;4992777;28;20066;-65
2021/12/04 12:25:51;;;;;;;5.78;1.65;;;;;;;;;;4977712;28;20054;-68
2021/12/04 12:37:27;;;;;;;4.47;2.92;;;;;;;;;;5011773;28;20062;-67
2021/12/04 12:40:08;;;;;;;3.40;1.70;;;;;;;;;;4993364;28;20089;-69
2021/12/04 12:42:47;;;;;;;3.67;1.90;;;;;;;;;;5000264;28;20073;-66
2021/12/04 12:45:34;;;;;;;5.63;1.95;;;;;;;;;;5015026;28;20049;-67
2021/12/04 12:48:08;;;;;;;7.57;5.03;;;;;;;;;;5011569;28;20409;-69
2021/12/04 12:50:46;;;;;;;5.55;1.65;;;;;;;;;;5011562;28;20061;-71
2021/12/04 12:53:26;;;;;;;3.97;2.25;;;;;;;;;;4993180;28;20066;-68
2021/12/04 12:56:10;;;;;;;4.10;1.70;;;;;;;;;;4992133;28;20050;-65
2021/12/04 12:58:52;;;;;;;2.90;1.70;;;;;;;;;;4991940;28;20054;-67
2021/12/04 13:14:20;;;;;;;5.03;1.50;;;;;;;;;;4999473;28;20057;-67
2021/12/04 13:17:07;;;;;;;10.55;1.92;;;;;;;;;;5031128;28;20053;-68
2021/12/04 13:19:40;;;;;;;7.15;1.50;;;;;;;;;;5030855;28;20065;-69
2021/12/04 13:22:19;;;;;;;3.60;2.58;;;;;;;;;;5029986;28;20448;-70
2021/12/04 13:24:53;;;;;;;2.97;1.77;;;;;;;;;;4985289;28;20524;-67
2021/12/04 13:30:05;;;;;;;4.57;1.63;;;;;;;;;;5050632;28;20064;-67
2021/12/04 13:32:41;;;;;;;4.28;1.33;;;;;;;;;;5034362;28;20083;-69
2021/12/04 13:35:17;;;;;;;4.05;1.55;;;;;;;;;;5050351;28;20056;-69
2021/12/04 13:37:58;;;;;;;6.25;1.40;;;;;;;;;;5030520;28;20158;-73
2021/12/04 13:40:28;;;;;;;4.55;1.60;;;;;;;;;;5030270;28;20049;-69
2021/12/04 13:42:58;;;;;;;12.10;4.70;;;;;;;;;;4997278;28;20062;-68
2021/12/04 13:45:29;;;;;;;3.58;1.38;;;;;;;;;;5030611;28;20045;-63
2021/12/04 13:48:00;;;;;;;3.25;1.90;;;;;;;;;;5026589;28;20046;-67
2021/12/04 13:53:13;;;;;;;3.22;1.83;;;;;;;;;;5030510;28;20064;-70
2021/12/04 13:56:00;;;;;;;2.45;1.50;;;;;;;;;;5029943;28;20065;-69
2021/12/04 13:58:30;;;;;;;3.47;1.52;;;;;;;;;;5030326;28;20064;-68
2021/12/04 14:01:03;;;;;;;6.35;1.65;;;;;;;;;;4997737;28;20060;-71
2021/12/04 14:03:33;;;;;;;3.85;1.90;;;;;;;;;;4977675;28;20153;-67
2021/12/04 14:06:04;;;;;;;4.03;1.45;;;;;;;;;;4961689;28;20088;-68
2021/12/04 14:08:38;;;;;;;4.32;1.80;;;;;;;;;;5026034;28;20500;-70
2021/12/04 14:11:09;;;;;;;4.75;1.73;;;;;;;;;;4982509;28;20050;-69
2021/12/04 14:13:39;;;;;;;5.70;1.65;;;;;;;;;;5030019;28;20058;-71
2021/12/04 14:16:10;;;;;;;6.20;1.45;;;;;;;;;;5014423;28;20072;-68
2021/12/04 14:18:42;;;;;;;3.05;1.50;;;;;;;;;;4977963;28;20050;-68
2021/12/04 14:21:16;;;;;;;5.05;1.48;;;;;;;;;;5028995;28;20540;-69
2021/12/04 14:23:49;;;;;;;14.00;5.88;;;;;;;;;;5029919;28;20045;-69
2021/12/04 14:26:19;;;;;;;8.52;2.40;;;;;;;;;;5005135;28;20084;-68
2021/12/04 14:29:05;;;;;;;5.22;1.95;;;;;;;;;;4980821;28;20049;-70
2021/12/04 14:31:35;;;;;;;14.32;11.13;;;;;;;;;;5037757;28;20053;-71
2021/12/04 14:34:05;;;;;;;4.47;2.35;;;;;;;;;;5002457;28;20050;-68
2021/12/04 14:36:36;;;;;;;10.43;2.75;;;;;;;;;;5010411;28;20046;-66
2021/12/04 14:39:06;;;;;;;7.32;3.03;;;;;;;;;;5010288;28;20433;-70
2021/12/04 14:41:37;;;;;;;13.02;5.68;;;;;;;;;;4970407;28;20059;-69
2021/12/04 14:44:13;;;;;;;6.65;3.47;;;;;;;;;;4970906;28;20415;-70
2021/12/04 14:46:43;;;;;;;10.65;2.80;;;;;;;;;;4932241;29;20063;-70
2021/12/04 14:49:15;;;;;;;11.55;1.65;;;;;;;;;;4932610;29;20060;-67
2021/12/04 14:51:46;;;;;;;3.90;1.20;;;;;;;;;;4916770;29;20060;-69
2021/12/04 14:54:26;;;;;;;;;;;;;;;;;;4917397;29;20067;-69
2021/12/04 14:56:56;;;;;;;3.05;2.05;;;;;;;;;;4932374;29;19922;-66
2021/12/04 14:59:32;;;;;;;8.38;1.70;;;;;;;;;;4882992;29;20063;-67
2021/12/04 15:02:13;;;;;;;1.98;1.08;;;;;;;;;;4882124;29;20172;-68
2021/12/04 15:04:44;;;;;;;3.58;1.63;;;;;;;;;;4913169;29;20060;-69
2021/12/04 15:07:22;;;;;;;3.50;1.70;;;;;;;;;;4883092;29;20056;-67
2021/12/04 15:09:53;;;;;;;4.30;1.73;;;;;;;;;;4881657;29;20503;-67
2021/12/04 15:12:35;;;;;;;3.30;1.10;;;;;;;;;;4893630;29;20060;-68
2021/12/04 15:15:09;;;;;;;6.97;1.45;;;;;;;;;;4880214;29;20056;-68
2021/12/04 15:17:42;;;;;;;4.60;1.40;;;;;;;;;;4845052;29;20060;-68
2021/12/04 15:20:19;;;;;;;6.18;1.83;;;;;;;;;;4910375;29;20056;-69
2021/12/04 15:22:54;;;;;;;4.55;2.05;;;;;;;;;;4932238;29;20055;-67
2021/12/04 15:25:30;;;;;;;3.42;1.40;;;;;;;;;;4950350;29;20055;-67
2021/12/04 15:28:01;;;;;;;8.07;4.93;;;;;;;;;;4970123;28;20529;-66
2021/12/04 15:30:35;;;;;;;9.13;1.85;;;;;;;;;;4974569;28;20057;-67
2021/12/04 15:33:05;;;;;;;6.57;2.60;;;;;;;;;;4990014;28;20450;-66
2021/12/04 15:35:43;;;;;;;14.68;11.10;;;;;;;;;;4957643;28;20521;-67
2021/12/04 15:38:21;;;;;;;6.80;3.60;;;;;;;;;;4989952;28;20056;-67
2021/12/04 15:54:04;;;;;;;5.38;1.60;;;;;;;;;;5069467;28;20048;-67
2021/12/04 15:56:45;;;;;;;4.53;1.42;;;;;;;;;;5055058;28;20049;-66
2021/12/04 15:59:26;;;;;;;4.15;1.55;;;;;;;;;;5019804;28;20056;-66
2021/12/04 16:02:12;;;;;;;3.38;1.52;;;;;;;;;;5019220;28;20057;-69
2021/12/04 16:04:44;;;;;;;3.40;1.13;;;;;;;;;;4996339;28;20073;-69
2021/12/04 16:07:29;;;;;;;5.85;1.50;;;;;;;;;;5012602;28;20185;-67
2021/12/04 16:10:09;;;;;;;4.15;1.48;;;;;;;;;;5012669;28;20089;-66
2021/12/04 16:12:40;;;;;;;4.88;1.80;;;;;;;;;;4963504;28;20046;-66
2021/12/04 16:15:15;;;;;;;3.97;2.10;;;;;;;;;;5012519;28;20440;-66
2021/12/04 16:17:46;;;;;;;6.85;1.63;;;;;;;;;;5012636;28;20062;-65
2021/12/04 16:20:17;;;;;;;4.50;1.80;;;;;;;;;;5012448;28;20077;-67
2021/12/04 16:22:50;;;;;;;3.88;1.33;;;;;;;;;;5012465;28;20069;-65
2021/12/04 16:25:24;;;;;;;3.13;1.30;;;;;;;;;;5012452;28;20058;-66
2021/12/04 16:30:34;;;;;;;6.53;3.85;;;;;;;;;;5012277;28;20056;-66
2021/12/04 16:33:12;;;;;;;8.93;1.48;;;;;;;;;;5012274;28;20046;-65
2021/12/04 16:36:03;;;;;;;7.53;2.13;;;;;;;;;;5011874;28;20528;-66
2021/12/04 16:38:35;;;;;;;4.65;1.40;;;;;;;;;;4996093;28;20057;-68
2021/12/04 16:41:08;;;;;;;5.20;1.33;;;;;;;;;;5006636;28;20061;-69
2021/12/04 16:43:41;;;;;;;2.22;1.38;;;;;;;;;;5051701;28;20049;-67
2021/12/04 16:46:15;;;;;;;3.35;1.42;;;;;;;;;;5051619;28;20056;-70
2021/12/04 16:48:51;;;;;;;3.08;1.27;;;;;;;;;;5031670;28;20082;-65
2021/12/04 16:57:07;;;;;;;6.47;1.52;;;;;;;;;;5051545;28;20495;-65
2021/12/04 16:59:39;;;;;;;3.92;1.40;;;;;;;;;;5018941;28;20061;-70
2021/12/04 17:02:11;;;;;;;3.65;1.20;;;;;;;;;;5035120;28;20053;-66
2021/12/04 17:04:42;;;;;;;3.42;1.27;;;;;;;;;;5051249;28;20057;-66
2021/12/04 17:07:13;;;;;;;5.43;1.23;;;;;;;;;;5019076;28;20076;-67
2021/12/04 17:09:44;;;;;;;6.07;1.40;;;;;;;;;;5034540;28;20053;-67
2021/12/04 17:12:14;;;;;;;4.47;1.20;;;;;;;;;;5051257;28;20045;-71
2021/12/04 17:14:44;;;;;;;5.18;1.20;;;;;;;;;;5050886;28;20053;-67
2021/12/04 17:17:23;;;;;;;2.63;1.50;;;;;;;;;;5011136;28;20050;-67
2021/12/04 17:19:54;;;;;;;4.30;1.20;;;;;;;;;;5016355;28;20060;-68
2021/12/04 17:22:26;;;;;;;6.40;1.30;;;;;;;;;;5050705;28;20053;-71
2021/12/04 17:24:57;;;;;;;4.40;1.13;;;;;;;;;;5050934;28;20053;-71
2021/12/04 17:27:27;;;;;;;3.80;1.40;;;;;;;;;;5050871;28;20600;-66
2021/12/04 17:29:58;;;;;;;3.63;1.30;;;;;;;;;;5001302;28;20048;-65
2021/12/04 17:32:29;;;;;;;4.30;1.40;;;;;;;;;;5034525;28;20041;-68
2021/12/04 17:34:59;;;;;;;5.10;1.40;;;;;;;;;;5030278;28;20049;-69
2021/12/04 17:37:30;;;;;;;2.70;1.48;;;;;;;;;;4991482;28;20504;-68
2021/12/04 17:40:01;;;;;;;4.30;1.25;;;;;;;;;;4981387;28;20058;-67
2021/12/04 17:42:35;;;;;;;2.45;1.38;;;;;;;;;;4983703;28;20057;-68
2021/12/04 17:45:10;;;;;;;3.90;2.08;;;;;;;;;;4990293;28;20434;-65
2021/12/04 17:47:42;;;;;;;4.80;1.30;;;;;;;;;;4991280;28;20528;-69
2021/12/04 17:50:21;;;;;;;5.47;1.60;;;;;;;;;;4991127;28;20059;-68
2021/12/04 17:52:54;;;;;;;4.20;1.60;;;;;;;;;;4976228;28;20059;-67
2021/12/04 17:55:27;;;;;;;6.68;2.70;;;;;;;;;;4952030;28;20051;-69
2021/12/04 17:57:58;;;;;;;2.58;1.50;;;;;;;;;;4932935;29;20531;-70
2021/12/04 18:00:38;;;;;;;2.35;1.40;;;;;;;;;;4951947;28;20058;-70
2021/12/04 18:03:11;;;;;;;4.43;1.30;;;;;;;;;;4951755;28;20062;-68
2021/12/04 18:05:42;;;;;;;6.53;1.70;;;;;;;;;;4952132;28;20055;-66
2021/12/04 18:08:14;;;;;;;6.93;1.73;;;;;;;;;;4965114;28;20430;-66
2021/12/04 18:10:49;;;;;;;5.43;1.27;;;;;;;;;;4971148;28;20060;-66
2021/12/04 18:13:22;;;;;;;3.72;1.40;;;;;;;;;;4970911;28;20062;-67
2021/12/04 18:16:06;;;;;;;9.85;1.50;;;;;;;;;;5020882;28;20056;-65
2021/12/04 18:18:37;;;;;;;;;;;;;;;;;;5030285;28;20064;-67
2021/12/04 18:21:08;;;;;;;6.13;1.70;;;;;;;;;;5009978;28;19921;-65
2021/12/04 18:23:39;;;;;;;2.92;1.20;;;;;;;;;;5010190;28;20065;-67
2021/12/04 18:26:10;;;;;;;2.85;1.08;;;;;;;;;;5009997;28;20061;-65
2021/12/04 18:28:41;;;;;;;5.43;1.45;;;;;;;;;;5010065;28;20480;-66
2021/12/04 18:31:11;;;;;;;6.78;1.23;;;;;;;;;;4961551;28;20537;-66
2021/12/04 18:33:42;;;;;;;4.90;1.20;;;;;;;;;;4980033;28;20055;-65
2021/12/04 18:36:12;;;;;;;4.32;1.38;;;;;;;;;;4970994;28;20061;-66
2021/12/04 18:38:43;;;;;;;5.88;1.58;;;;;;;;;;4970814;28;20066;-66
2021/12/04 18:41:20;;;;;;;11.70;1.90;;;;;;;;;;4938755;28;20051;-65
2021/12/04 18:43:55;;;;;;;5.97;1.40;;;;;;;;;;4970889;28;20055;-68
2021/12/04 18:46:31;;;;;;;6.28;1.70;;;;;;;;;;4970678;28;20106;-68
2021/12/04 18:49:05;;;;;;;3.67;1.25;;;;;;;;;;4985310;28;20518;-66
2021/12/04 18:51:37;;;;;;;2.13;1.15;;;;;;;;;;4973863;28;20445;-65
2021/12/04 18:54:07;;;;;;;7.30;1.20;;;;;;;;;;4990153;28;20047;-63
2021/12/04 18:56:38;;;;;;;2.47;1.30;;;;;;;;;;4973784;28;20054;-65